EGAC/BHD METAR and TAF weather

Enter ICAO airport designator
Station Type Date Time Source
EGAC METAR 2018/10/19 15:20 UTC NOAA

EGAC 191520Z AUTO 25007KT 210V300 9999 BKN016/// 14/11 Q1024


Station Type Date Time Source
EGAC Decoded METAR 2018/10/19 15:20 UTC NOAA

Belfast / Harbour, United Kingdom (EGAC) 54-36N 005-53W 0M
Oct 19, 2018 - 11:20 AM EDT / 2018.10.19 1520 UTC
Wind: from the WSW (250 degrees) at 8 MPH (7 KT) (direction variable):0
Visibility: greater than 7 mile(s):0
Sky conditions: mostly cloudy
Temperature: 57 F (14 C)
Dew Point: 51 F (11 C)
Relative Humidity: 82%
Pressure (altimeter): 30.24 in. Hg (1024 hPa)
ob: EGAC 191520Z AUTO 25007KT 210V300 9999 BKN016/// 14/11 Q1024
cycle: 15

Station Type Date Time Source
EGAC TAF UTC NOAA

Error!


Example: see airport list